sensor_id;sensor_type;location;lat;lon;timestamp;P1;durP1;ratioP1;P2;durP2;ratioP2
70228;SDS011;57617;51.988;5.854;2023-04-24T00:02:06;10.38;;;5.93;;
70228;SDS011;57617;51.988;5.854;2023-04-24T00:04:35;9.23;;;5.85;;
70228;SDS011;57617;51.988;5.854;2023-04-24T00:07:01;12.80;;;5.80;;
70228;SDS011;57617;51.988;5.854;2023-04-24T00:09:27;10.15;;;5.32;;
70228;SDS011;57617;51.988;5.854;2023-04-24T00:11:52;10.38;;;5.75;;
70228;SDS011;57617;51.988;5.854;2023-04-24T00:14:18;11.73;;;6.00;;
70228;SDS011;57617;51.988;5.854;2023-04-24T00:16:44;12.65;;;5.75;;
70228;SDS011;57617;51.988;5.854;2023-04-24T00:19:09;13.18;;;5.18;;
70228;SDS011;57617;51.988;5.854;2023-04-24T00:21:36;10.18;;;5.28;;
70228;SDS011;57617;51.988;5.854;2023-04-24T00:24:01;9.07;;;5.47;;
70228;SDS011;57617;51.988;5.854;2023-04-24T00:26:26;7.60;;;4.72;;
70228;SDS011;57617;51.988;5.854;2023-04-24T00:28:52;8.13;;;4.22;;
70228;SDS011;57617;51.988;5.854;2023-04-24T00:31:17;6.55;;;3.85;;
70228;SDS011;57617;51.988;5.854;2023-04-24T00:33:42;6.63;;;3.55;;
70228;SDS011;57617;51.988;5.854;2023-04-24T00:36:08;5.28;;;3.13;;
70228;SDS011;57617;51.988;5.854;2023-04-24T00:38:33;5.47;;;3.30;;
70228;SDS011;57617;51.988;5.854;2023-04-24T00:40:58;5.82;;;2.75;;
70228;SDS011;57617;51.988;5.854;2023-04-24T00:43:24;6.82;;;2.92;;
70228;SDS011;57617;51.988;5.854;2023-04-24T00:45:49;4.10;;;2.88;;
70228;SDS011;57617;51.988;5.854;2023-04-24T00:48:15;5.55;;;2.75;;
70228;SDS011;57617;51.988;5.854;2023-04-24T00:50:41;5.35;;;3.05;;
70228;SDS011;57617;51.988;5.854;2023-04-24T00:53:07;5.80;;;3.55;;
70228;SDS011;57617;51.988;5.854;2023-04-24T00:55:32;5.32;;;3.65;;
70228;SDS011;57617;51.988;5.854;2023-04-24T00:57:57;5.60;;;3.80;;
70228;SDS011;57617;51.988;5.854;2023-04-24T01:00:23;7.82;;;4.47;;
70228;SDS011;57617;51.988;5.854;2023-04-24T01:02:49;8.82;;;4.47;;
70228;SDS011;57617;51.988;5.854;2023-04-24T01:05:14;7.15;;;4.15;;
70228;SDS011;57617;51.988;5.854;2023-04-24T01:07:40;7.93;;;4.65;;
70228;SDS011;57617;51.988;5.854;2023-04-24T01:10:09;8.85;;;5.38;;
70228;SDS011;57617;51.988;5.854;2023-04-24T01:12:34;11.25;;;6.00;;
70228;SDS011;57617;51.988;5.854;2023-04-24T01:15:00;12.20;;;6.53;;
70228;SDS011;57617;51.988;5.854;2023-04-24T01:17:25;14.40;;;7.40;;
70228;SDS011;57617;51.988;5.854;2023-04-24T01:19:51;20.77;;;9.63;;
70228;SDS011;57617;51.988;5.854;2023-04-24T01:22:21;19.48;;;9.77;;
70228;SDS011;57617;51.988;5.854;2023-04-24T01:24:47;19.77;;;9.85;;
70228;SDS011;57617;51.988;5.854;2023-04-24T01:27:12;22.70;;;11.00;;
70228;SDS011;57617;51.988;5.854;2023-04-24T01:29:38;20.13;;;9.43;;
70228;SDS011;57617;51.988;5.854;2023-04-24T01:32:04;16.75;;;8.77;;
70228;SDS011;57617;51.988;5.854;2023-04-24T01:34:30;20.48;;;9.25;;
70228;SDS011;57617;51.988;5.854;2023-04-24T01:36:56;16.00;;;8.00;;
70228;SDS011;57617;51.988;5.854;2023-04-24T01:39:21;16.55;;;7.57;;
70228;SDS011;57617;51.988;5.854;2023-04-24T01:41:50;15.73;;;7.95;;
70228;SDS011;57617;51.988;5.854;2023-04-24T01:44:15;13.52;;;6.80;;
70228;SDS011;57617;51.988;5.854;2023-04-24T01:46:41;11.75;;;5.82;;
70228;SDS011;57617;51.988;5.854;2023-04-24T01:49:06;13.88;;;5.70;;
70228;SDS011;57617;51.988;5.854;2023-04-24T01:51:31;11.18;;;4.93;;
70228;SDS011;57617;51.988;5.854;2023-04-24T01:53:57;10.73;;;5.40;;
70228;SDS011;57617;51.988;5.854;2023-04-24T01:56:22;9.07;;;4.75;;
70228;SDS011;57617;51.988;5.854;2023-04-24T01:58:48;9.23;;;4.60;;
70228;SDS011;57617;51.988;5.854;2023-04-24T02:01:18;11.40;;;5.03;;
70228;SDS011;57617;51.988;5.854;2023-04-24T02:03:45;9.93;;;4.80;;
70228;SDS011;57617;51.988;5.854;2023-04-24T02:06:10;11.43;;;5.35;;
70228;SDS011;57617;51.988;5.854;2023-04-24T02:08:35;13.10;;;6.18;;
70228;SDS011;57617;51.988;5.854;2023-04-24T02:11:00;13.80;;;6.65;;
70228;SDS011;57617;51.988;5.854;2023-04-24T02:13:27;17.45;;;7.70;;
70228;SDS011;57617;51.988;5.854;2023-04-24T02:15:52;18.73;;;8.20;;
70228;SDS011;57617;51.988;5.854;2023-04-24T02:18:17;17.33;;;7.97;;
70228;SDS011;57617;51.988;5.854;2023-04-24T02:20:43;16.05;;;8.13;;
70228;SDS011;57617;51.988;5.854;2023-04-24T02:23:08;18.65;;;8.75;;
70228;SDS011;57617;51.988;5.854;2023-04-24T02:25:33;22.02;;;9.68;;
70228;SDS011;57617;51.988;5.854;2023-04-24T02:27:59;19.83;;;9.82;;
70228;SDS011;57617;51.988;5.854;2023-04-24T02:30:24;21.85;;;9.48;;
70228;SDS011;57617;51.988;5.854;2023-04-24T02:32:49;22.33;;;10.52;;
70228;SDS011;57617;51.988;5.854;2023-04-24T02:35:15;23.50;;;11.30;;
70228;SDS011;57617;51.988;5.854;2023-04-24T02:37:40;23.80;;;11.48;;
70228;SDS011;57617;51.988;5.854;2023-04-24T02:40:05;39.20;;;16.63;;
70228;SDS011;57617;51.988;5.854;2023-04-24T02:42:32;42.17;;;17.52;;
70228;SDS011;57617;51.988;5.854;2023-04-24T02:44:57;34.65;;;16.05;;
70228;SDS011;57617;51.988;5.854;2023-04-24T02:47:22;35.75;;;15.93;;
70228;SDS011;57617;51.988;5.854;2023-04-24T02:49:47;36.00;;;16.45;;
70228;SDS011;57617;51.988;5.854;2023-04-24T02:52:13;39.13;;;17.02;;
70228;SDS011;57617;51.988;5.854;2023-04-24T02:54:39;37.47;;;16.42;;
70228;SDS011;57617;51.988;5.854;2023-04-24T02:57:04;38.40;;;16.27;;
70228;SDS011;57617;51.988;5.854;2023-04-24T02:59:31;38.58;;;16.58;;
70228;SDS011;57617;51.988;5.854;2023-04-24T03:01:56;39.67;;;16.33;;
70228;SDS011;57617;51.988;5.854;2023-04-24T03:04:22;40.35;;;16.42;;
70228;SDS011;57617;51.988;5.854;2023-04-24T03:06:47;30.80;;;13.13;;
70228;SDS011;57617;51.988;5.854;2023-04-24T03:09:13;23.98;;;11.10;;
70228;SDS011;57617;51.988;5.854;2023-04-24T03:11:38;24.10;;;11.35;;
70228;SDS011;57617;51.988;5.854;2023-04-24T03:14:03;27.55;;;12.00;;
70228;SDS011;57617;51.988;5.854;2023-04-24T03:16:29;30.33;;;13.23;;
70228;SDS011;57617;51.988;5.854;2023-04-24T03:18:54;29.50;;;12.57;;
70228;SDS011;57617;51.988;5.854;2023-04-24T03:21:19;31.23;;;13.23;;
70228;SDS011;57617;51.988;5.854;2023-04-24T03:23:45;34.25;;;14.55;;
70228;SDS011;57617;51.988;5.854;2023-04-24T03:26:10;35.78;;;15.20;;
70228;SDS011;57617;51.988;5.854;2023-04-24T03:28:35;36.25;;;15.07;;
70228;SDS011;57617;51.988;5.854;2023-04-24T03:31:01;41.50;;;18.30;;
70228;SDS011;57617;51.988;5.854;2023-04-24T03:33:27;38.47;;;16.75;;
70228;SDS011;57617;51.988;5.854;2023-04-24T03:35:53;42.10;;;17.77;;
70228;SDS011;57617;51.988;5.854;2023-04-24T03:38:18;39.65;;;18.30;;
70228;SDS011;57617;51.988;5.854;2023-04-24T03:40:43;40.80;;;18.67;;
70228;SDS011;57617;51.988;5.854;2023-04-24T03:43:09;46.50;;;19.83;;
70228;SDS011;57617;51.988;5.854;2023-04-24T03:45:34;46.97;;;20.70;;
70228;SDS011;57617;51.988;5.854;2023-04-24T03:47:59;51.97;;;19.80;;
70228;SDS011;57617;51.988;5.854;2023-04-24T03:50:25;48.50;;;20.63;;
70228;SDS011;57617;51.988;5.854;2023-04-24T03:52:51;45.75;;;20.50;;
70228;SDS011;57617;51.988;5.854;2023-04-24T03:55:16;51.15;;;21.67;;
70228;SDS011;57617;51.988;5.854;2023-04-24T03:57:42;52.95;;;23.42;;
70228;SDS011;57617;51.988;5.854;2023-04-24T04:00:07;56.90;;;25.02;;
70228;SDS011;57617;51.988;5.854;2023-04-24T04:02:33;58.75;;;23.98;;
70228;SDS011;57617;51.988;5.854;2023-04-24T04:04:59;59.25;;;25.40;;
70228;SDS011;57617;51.988;5.854;2023-04-24T04:07:24;64.97;;;26.88;;
70228;SDS011;57617;51.988;5.854;2023-04-24T04:09:50;62.63;;;25.17;;
70228;SDS011;57617;51.988;5.854;2023-04-24T04:12:15;60.50;;;25.58;;
70228;SDS011;57617;51.988;5.854;2023-04-24T04:14:41;64.25;;;26.80;;
70228;SDS011;57617;51.988;5.854;2023-04-24T04:17:06;56.88;;;24.77;;
70228;SDS011;57617;51.988;5.854;2023-04-24T04:19:32;57.33;;;25.70;;
70228;SDS011;57617;51.988;5.854;2023-04-24T04:21:57;56.80;;;24.98;;
70228;SDS011;57617;51.988;5.854;2023-04-24T04:24:22;55.28;;;23.30;;
70228;SDS011;57617;51.988;5.854;2023-04-24T04:26:49;51.58;;;22.50;;
70228;SDS011;57617;51.988;5.854;2023-04-24T04:29:15;53.55;;;23.17;;
70228;SDS011;57617;51.988;5.854;2023-04-24T04:31:41;52.33;;;23.13;;
70228;SDS011;57617;51.988;5.854;2023-04-24T04:34:06;49.38;;;21.85;;
70228;SDS011;57617;51.988;5.854;2023-04-24T04:36:32;53.10;;;22.67;;
70228;SDS011;57617;51.988;5.854;2023-04-24T04:39:01;49.33;;;21.63;;
70228;SDS011;57617;51.988;5.854;2023-04-24T04:41:27;48.92;;;22.13;;
70228;SDS011;57617;51.988;5.854;2023-04-24T04:43:53;53.30;;;22.27;;
70228;SDS011;57617;51.988;5.854;2023-04-24T04:46:18;47.45;;;20.77;;
70228;SDS011;57617;51.988;5.854;2023-04-24T04:48:43;47.63;;;20.73;;
70228;SDS011;57617;51.988;5.854;2023-04-24T04:51:09;50.30;;;21.73;;
70228;SDS011;57617;51.988;5.854;2023-04-24T04:53:34;45.28;;;21.52;;
70228;SDS011;57617;51.988;5.854;2023-04-24T04:56:00;46.17;;;21.58;;
70228;SDS011;57617;51.988;5.854;2023-04-24T04:58:25;48.22;;;20.63;;
70228;SDS011;57617;51.988;5.854;2023-04-24T05:00:51;49.13;;;20.10;;
70228;SDS011;57617;51.988;5.854;2023-04-24T05:03:17;46.13;;;20.05;;
70228;SDS011;57617;51.988;5.854;2023-04-24T05:05:42;44.50;;;19.42;;
70228;SDS011;57617;51.988;5.854;2023-04-24T05:08:08;51.38;;;21.00;;
70228;SDS011;57617;51.988;5.854;2023-04-24T05:10:33;51.67;;;21.23;;
70228;SDS011;57617;51.988;5.854;2023-04-24T05:12:59;44.47;;;20.05;;
70228;SDS011;57617;51.988;5.854;2023-04-24T05:15:25;44.13;;;20.02;;
70228;SDS011;57617;51.988;5.854;2023-04-24T05:17:50;42.15;;;19.27;;
70228;SDS011;57617;51.988;5.854;2023-04-24T05:20:16;49.33;;;20.20;;
70228;SDS011;57617;51.988;5.854;2023-04-24T05:22:41;45.97;;;20.20;;
70228;SDS011;57617;51.988;5.854;2023-04-24T05:25:07;47.55;;;20.23;;
70228;SDS011;57617;51.988;5.854;2023-04-24T05:27:33;45.50;;;20.15;;
70228;SDS011;57617;51.988;5.854;2023-04-24T05:29:59;39.67;;;18.10;;
70228;SDS011;57617;51.988;5.854;2023-04-24T05:32:24;39.70;;;16.95;;
70228;SDS011;57617;51.988;5.854;2023-04-24T05:34:49;36.88;;;17.05;;
70228;SDS011;57617;51.988;5.854;2023-04-24T05:37:15;36.20;;;15.70;;
70228;SDS011;57617;51.988;5.854;2023-04-24T05:39:40;35.03;;;15.23;;
70228;SDS011;57617;51.988;5.854;2023-04-24T05:42:06;30.55;;;14.15;;
70228;SDS011;57617;51.988;5.854;2023-04-24T05:44:31;31.23;;;14.63;;
70228;SDS011;57617;51.988;5.854;2023-04-24T05:46:57;28.88;;;13.82;;
70228;SDS011;57617;51.988;5.854;2023-04-24T05:49:22;27.85;;;13.35;;
70228;SDS011;57617;51.988;5.854;2023-04-24T05:51:48;28.77;;;12.68;;
70228;SDS011;57617;51.988;5.854;2023-04-24T05:54:13;26.08;;;11.10;;
70228;SDS011;57617;51.988;5.854;2023-04-24T05:56:39;26.15;;;11.18;;
70228;SDS011;57617;51.988;5.854;2023-04-24T05:59:05;23.85;;;11.10;;
70228;SDS011;57617;51.988;5.854;2023-04-24T06:01:30;25.35;;;9.98;;
70228;SDS011;57617;51.988;5.854;2023-04-24T06:03:56;23.40;;;10.98;;
70228;SDS011;57617;51.988;5.854;2023-04-24T06:06:22;23.98;;;11.07;;
70228;SDS011;57617;51.988;5.854;2023-04-24T06:08:48;25.52;;;10.77;;
70228;SDS011;57617;51.988;5.854;2023-04-24T06:11:14;22.90;;;10.60;;
70228;SDS011;57617;51.988;5.854;2023-04-24T06:13:39;21.42;;;10.30;;
70228;SDS011;57617;51.988;5.854;2023-04-24T06:16:04;22.25;;;10.63;;
70228;SDS011;57617;51.988;5.854;2023-04-24T06:18:30;22.70;;;10.10;;
70228;SDS011;57617;51.988;5.854;2023-04-24T06:20:55;20.10;;;9.65;;
70228;SDS011;57617;51.988;5.854;2023-04-24T06:23:20;18.15;;;9.25;;
70228;SDS011;57617;51.988;5.854;2023-04-24T06:25:46;18.48;;;8.63;;
70228;SDS011;57617;51.988;5.854;2023-04-24T06:28:11;17.98;;;8.65;;
70228;SDS011;57617;51.988;5.854;2023-04-24T06:30:37;17.25;;;8.52;;
70228;SDS011;57617;51.988;5.854;2023-04-24T06:33:02;17.60;;;8.48;;
70228;SDS011;57617;51.988;5.854;2023-04-24T06:35:27;15.40;;;7.97;;
70228;SDS011;57617;51.988;5.854;2023-04-24T06:37:53;15.27;;;7.60;;
70228;SDS011;57617;51.988;5.854;2023-04-24T06:40:18;14.77;;;7.47;;
70228;SDS011;57617;51.988;5.854;2023-04-24T06:42:44;12.68;;;6.35;;
70228;SDS011;57617;51.988;5.854;2023-04-24T06:45:09;11.50;;;5.95;;
70228;SDS011;57617;51.988;5.854;2023-04-24T06:47:35;15.40;;;6.10;;
70228;SDS011;57617;51.988;5.854;2023-04-24T06:50:01;12.35;;;6.47;;
70228;SDS011;57617;51.988;5.854;2023-04-24T06:52:26;12.55;;;5.65;;
70228;SDS011;57617;51.988;5.854;2023-04-24T06:54:51;9.00;;;5.22;;
70228;SDS011;57617;51.988;5.854;2023-04-24T06:57:17;14.60;;;5.28;;
70228;SDS011;57617;51.988;5.854;2023-04-24T06:59:42;14.13;;;5.13;;
70228;SDS011;57617;51.988;5.854;2023-04-24T07:02:08;9.60;;;4.70;;
70228;SDS011;57617;51.988;5.854;2023-04-24T07:04:33;9.57;;;4.40;;
70228;SDS011;57617;51.988;5.854;2023-04-24T07:06:59;8.10;;;4.00;;
70228;SDS011;57617;51.988;5.854;2023-04-24T07:09:25;7.72;;;4.15;;
70228;SDS011;57617;51.988;5.854;2023-04-24T07:11:53;6.20;;;3.83;;
70228;SDS011;57617;51.988;5.854;2023-04-24T07:14:21;7.75;;;3.75;;
70228;SDS011;57617;51.988;5.854;2023-04-24T07:16:46;6.20;;;3.40;;
70228;SDS011;57617;51.988;5.854;2023-04-24T07:19:12;6.22;;;3.38;;
70228;SDS011;57617;51.988;5.854;2023-04-24T07:21:38;6.00;;;3.40;;
70228;SDS011;57617;51.988;5.854;2023-04-24T07:24:04;4.20;;;2.67;;
70228;SDS011;57617;51.988;5.854;2023-04-24T07:26:29;5.30;;;2.53;;
70228;SDS011;57617;51.988;5.854;2023-04-24T07:28:55;4.13;;;2.30;;
70228;SDS011;57617;51.988;5.854;2023-04-24T07:31:21;4.53;;;2.50;;
70228;SDS011;57617;51.988;5.854;2023-04-24T07:33:47;3.72;;;2.20;;
70228;SDS011;57617;51.988;5.854;2023-04-24T07:36:12;7.78;;;2.58;;
70228;SDS011;57617;51.988;5.854;2023-04-24T07:38:42;4.97;;;2.65;;
70228;SDS011;57617;51.988;5.854;2023-04-24T07:41:07;7.43;;;3.15;;
70228;SDS011;57617;51.988;5.854;2023-04-24T07:43:33;6.80;;;3.78;;
70228;SDS011;57617;51.988;5.854;2023-04-24T07:45:58;10.52;;;4.15;;
70228;SDS011;57617;51.988;5.854;2023-04-24T07:48:24;10.80;;;4.85;;
70228;SDS011;57617;51.988;5.854;2023-04-24T07:50:51;9.75;;;4.85;;
70228;SDS011;57617;51.988;5.854;2023-04-24T07:53:16;8.77;;;5.32;;
70228;SDS011;57617;51.988;5.854;2023-04-24T07:55:41;12.63;;;5.13;;
70228;SDS011;57617;51.988;5.854;2023-04-24T07:58:06;14.32;;;6.07;;
70228;SDS011;57617;51.988;5.854;2023-04-24T08:00:32;14.20;;;6.80;;
70228;SDS011;57617;51.988;5.854;2023-04-24T08:02:57;13.90;;;7.65;;
70228;SDS011;57617;51.988;5.854;2023-04-24T08:05:22;17.23;;;8.30;;
70228;SDS011;57617;51.988;5.854;2023-04-24T08:07:50;20.25;;;9.18;;
70228;SDS011;57617;51.988;5.854;2023-04-24T08:10:15;19.90;;;8.93;;
70228;SDS011;57617;51.988;5.854;2023-04-24T08:12:41;20.00;;;8.95;;
70228;SDS011;57617;51.988;5.854;2023-04-24T08:15:06;19.13;;;9.23;;
70228;SDS011;57617;51.988;5.854;2023-04-24T08:17:33;18.52;;;9.02;;
70228;SDS011;57617;51.988;5.854;2023-04-24T08:20:00;19.02;;;8.68;;
70228;SDS011;57617;51.988;5.854;2023-04-24T08:22:26;21.10;;;9.13;;
70228;SDS011;57617;51.988;5.854;2023-04-24T08:24:52;24.13;;;9.10;;
70228;SDS011;57617;51.988;5.854;2023-04-24T08:27:18;19.92;;;8.95;;
70228;SDS011;57617;51.988;5.854;2023-04-24T08:29:43;17.85;;;8.90;;
70228;SDS011;57617;51.988;5.854;2023-04-24T08:32:08;20.73;;;8.98;;
70228;SDS011;57617;51.988;5.854;2023-04-24T08:34:34;22.13;;;8.75;;
70228;SDS011;57617;51.988;5.854;2023-04-24T08:36:59;25.05;;;9.75;;
70228;SDS011;57617;51.988;5.854;2023-04-24T08:39:24;22.00;;;8.68;;
70228;SDS011;57617;51.988;5.854;2023-04-24T08:41:50;18.35;;;8.80;;
70228;SDS011;57617;51.988;5.854;2023-04-24T08:44:17;20.67;;;8.77;;
70228;SDS011;57617;51.988;5.854;2023-04-24T08:46:43;31.30;;;9.75;;
70228;SDS011;57617;51.988;5.854;2023-04-24T08:49:13;21.38;;;9.07;;
70228;SDS011;57617;51.988;5.854;2023-04-24T08:51:41;21.98;;;8.90;;
70228;SDS011;57617;51.988;5.854;2023-04-24T08:54:06;17.25;;;8.40;;
70228;SDS011;57617;51.988;5.854;2023-04-24T08:56:33;12.38;;;6.70;;
70228;SDS011;57617;51.988;5.854;2023-04-24T08:58:58;15.50;;;7.60;;
70228;SDS011;57617;51.988;5.854;2023-04-24T09:01:24;12.45;;;6.22;;
70228;SDS011;57617;51.988;5.854;2023-04-24T09:03:50;17.48;;;6.63;;
70228;SDS011;57617;51.988;5.854;2023-04-24T09:06:18;14.40;;;6.18;;
70228;SDS011;57617;51.988;5.854;2023-04-24T09:08:45;12.40;;;5.15;;
70228;SDS011;57617;51.988;5.854;2023-04-24T09:11:10;14.77;;;5.50;;
70228;SDS011;57617;51.988;5.854;2023-04-24T09:13:36;20.15;;;4.97;;
70228;SDS011;57617;51.988;5.854;2023-04-24T09:16:01;13.23;;;4.55;;
70228;SDS011;57617;51.988;5.854;2023-04-24T09:18:27;13.50;;;4.32;;
70228;SDS011;57617;51.988;5.854;2023-04-24T09:21:06;16.80;;;4.40;;
70228;SDS011;57617;51.988;5.854;2023-04-24T09:23:33;14.40;;;4.25;;
70228;SDS011;57617;51.988;5.854;2023-04-24T09:25:59;12.73;;;3.90;;
70228;SDS011;57617;51.988;5.854;2023-04-24T09:33:31;14.35;;;3.97;;
70228;SDS011;57617;51.988;5.854;2023-04-24T09:35:56;16.88;;;4.15;;
70228;SDS011;57617;51.988;5.854;2023-04-24T09:38:31;14.38;;;3.53;;
70228;SDS011;57617;51.988;5.854;2023-04-24T09:41:15;12.60;;;3.22;;
70228;SDS011;57617;51.988;5.854;2023-04-24T09:43:41;19.50;;;3.50;;
70228;SDS011;57617;51.988;5.854;2023-04-24T09:46:07;16.08;;;3.53;;
70228;SDS011;57617;51.988;5.854;2023-04-24T09:48:34;15.98;;;3.47;;
70228;SDS011;57617;51.988;5.854;2023-04-24T09:51:02;15.07;;;3.22;;
70228;SDS011;57617;51.988;5.854;2023-04-24T09:53:31;12.07;;;3.28;;
70228;SDS011;57617;51.988;5.854;2023-04-24T09:56:06;11.50;;;3.10;;
70228;SDS011;57617;51.988;5.854;2023-04-24T09:58:35;13.73;;;2.90;;
70228;SDS011;57617;51.988;5.854;2023-04-24T10:01:01;11.73;;;3.25;;
70228;SDS011;57617;51.988;5.854;2023-04-24T10:03:29;11.32;;;3.10;;
70228;SDS011;57617;51.988;5.854;2023-04-24T10:05:58;14.88;;;3.03;;
70228;SDS011;57617;51.988;5.854;2023-04-24T10:08:24;12.32;;;2.97;;
70228;SDS011;57617;51.988;5.854;2023-04-24T10:10:51;13.55;;;3.10;;
70228;SDS011;57617;51.988;5.854;2023-04-24T10:13:17;11.25;;;3.15;;
70228;SDS011;57617;51.988;5.854;2023-04-24T10:15:42;16.02;;;3.58;;
70228;SDS011;57617;51.988;5.854;2023-04-24T10:18:08;9.57;;;3.08;;
70228;SDS011;57617;51.988;5.854;2023-04-24T10:20:36;12.82;;;3.40;;
70228;SDS011;57617;51.988;5.854;2023-04-24T10:23:03;16.90;;;3.17;;
70228;SDS011;57617;51.988;5.854;2023-04-24T10:25:30;13.15;;;3.20;;
70228;SDS011;57617;51.988;5.854;2023-04-24T10:27:57;12.68;;;3.30;;
70228;SDS011;57617;51.988;5.854;2023-04-24T10:30:25;18.50;;;4.20;;
70228;SDS011;57617;51.988;5.854;2023-04-24T10:32:51;15.20;;;3.30;;
70228;SDS011;57617;51.988;5.854;2023-04-24T10:35:17;14.88;;;3.30;;
70228;SDS011;57617;51.988;5.854;2023-04-24T10:38:18;11.90;;;2.95;;
70228;SDS011;57617;51.988;5.854;2023-04-24T10:40:37;10.48;;;2.90;;
70228;SDS011;57617;51.988;5.854;2023-04-24T10:43:03;10.98;;;3.00;;
70228;SDS011;57617;51.988;5.854;2023-04-24T10:45:34;8.10;;;2.20;;
70228;SDS011;57617;51.988;5.854;2023-04-24T10:48:07;11.48;;;2.53;;
70228;SDS011;57617;51.988;5.854;2023-04-24T10:50:48;8.85;;;2.30;;
70228;SDS011;57617;51.988;5.854;2023-04-24T10:53:18;6.45;;;2.45;;
70228;SDS011;57617;51.988;5.854;2023-04-24T10:58:10;13.20;;;2.85;;
70228;SDS011;57617;51.988;5.854;2023-04-24T11:00:37;13.32;;;2.85;;
70228;SDS011;57617;51.988;5.854;2023-04-24T11:03:06;9.25;;;2.78;;
70228;SDS011;57617;51.988;5.854;2023-04-24T11:05:55;8.60;;;1.88;;
70228;SDS011;57617;51.988;5.854;2023-04-24T11:10:55;7.15;;;2.10;;
70228;SDS011;57617;51.988;5.854;2023-04-24T11:16:51;6.38;;;2.00;;
70228;SDS011;57617;51.988;5.854;2023-04-24T11:24:30;8.27;;;1.80;;
70228;SDS011;57617;51.988;5.854;2023-04-24T11:29:39;3.80;;;1.30;;
70228;SDS011;57617;51.988;5.854;2023-04-24T11:32:18;2.72;;;1.00;;
70228;SDS011;57617;51.988;5.854;2023-04-24T11:34:52;3.15;;;1.13;;
70228;SDS011;57617;51.988;5.854;2023-04-24T11:37:19;6.82;;;1.10;;
70228;SDS011;57617;51.988;5.854;2023-04-24T11:39:44;3.50;;;0.93;;
70228;SDS011;57617;51.988;5.854;2023-04-24T11:42:10;3.75;;;1.10;;
70228;SDS011;57617;51.988;5.854;2023-04-24T11:44:35;5.30;;;1.02;;
70228;SDS011;57617;51.988;5.854;2023-04-24T11:47:04;2.65;;;0.90;;
70228;SDS011;57617;51.988;5.854;2023-04-24T11:49:30;4.88;;;0.80;;
70228;SDS011;57617;51.988;5.854;2023-04-24T11:51:55;4.45;;;1.30;;
70228;SDS011;57617;51.988;5.854;2023-04-24T11:54:21;4.28;;;1.23;;
70228;SDS011;57617;51.988;5.854;2023-04-24T11:56:46;4.43;;;0.90;;
70228;SDS011;57617;51.988;5.854;2023-04-24T11:59:12;3.90;;;0.90;;
70228;SDS011;57617;51.988;5.854;2023-04-24T12:01:47;4.28;;;0.90;;
70228;SDS011;57617;51.988;5.854;2023-04-24T12:04:14;5.15;;;1.23;;
70228;SDS011;57617;51.988;5.854;2023-04-24T12:07:02;3.42;;;1.23;;
70228;SDS011;57617;51.988;5.854;2023-04-24T12:09:27;5.18;;;1.10;;
70228;SDS011;57617;51.988;5.854;2023-04-24T12:11:56;2.78;;;1.00;;
70228;SDS011;57617;51.988;5.854;2023-04-24T12:14:24;4.50;;;1.13;;
70228;SDS011;57617;51.988;5.854;2023-04-24T12:16:50;4.15;;;1.52;;
70228;SDS011;57617;51.988;5.854;2023-04-24T12:19:22;8.80;;;1.42;;
70228;SDS011;57617;51.988;5.854;2023-04-24T12:22:01;7.30;;;1.63;;
70228;SDS011;57617;51.988;5.854;2023-04-24T12:24:28;2.67;;;1.30;;
70228;SDS011;57617;51.988;5.854;2023-04-24T12:26:54;13.50;;;1.38;;
70228;SDS011;57617;51.988;5.854;2023-04-24T12:29:20;3.33;;;1.20;;
70228;SDS011;57617;51.988;5.854;2023-04-24T12:31:46;5.05;;;1.00;;
70228;SDS011;57617;51.988;5.854;2023-04-24T12:34:17;3.03;;;1.02;;
70228;SDS011;57617;51.988;5.854;2023-04-24T12:36:47;14.43;;;1.17;;
70228;SDS011;57617;51.988;5.854;2023-04-24T12:39:16;4.93;;;0.90;;
70228;SDS011;57617;51.988;5.854;2023-04-24T12:41:54;6.22;;;0.95;;
70228;SDS011;57617;51.988;5.854;2023-04-24T12:44:31;6.78;;;1.90;;
70228;SDS011;57617;51.988;5.854;2023-04-24T12:46:59;2.10;;;0.85;;
70228;SDS011;57617;51.988;5.854;2023-04-24T12:49:25;5.10;;;0.90;;
70228;SDS011;57617;51.988;5.854;2023-04-24T12:51:50;4.70;;;0.90;;
70228;SDS011;57617;51.988;5.854;2023-04-24T12:54:16;2.22;;;0.80;;
70228;SDS011;57617;51.988;5.854;2023-04-24T12:56:41;3.95;;;0.93;;
70228;SDS011;57617;51.988;5.854;2023-04-24T12:59:06;5.30;;;0.90;;
70228;SDS011;57617;51.988;5.854;2023-04-24T13:01:32;5.38;;;1.00;;
70228;SDS011;57617;51.988;5.854;2023-04-24T13:03:57;3.42;;;0.90;;
70228;SDS011;57617;51.988;5.854;2023-04-24T13:06:22;2.72;;;0.98;;
70228;SDS011;57617;51.988;5.854;2023-04-24T13:08:47;2.50;;;0.93;;
70228;SDS011;57617;51.988;5.854;2023-04-24T13:11:13;3.35;;;1.20;;
70228;SDS011;57617;51.988;5.854;2023-04-24T13:13:42;4.15;;;1.20;;
70228;SDS011;57617;51.988;5.854;2023-04-24T13:16:08;3.05;;;0.93;;
70228;SDS011;57617;51.988;5.854;2023-04-24T13:18:33;3.28;;;1.20;;
70228;SDS011;57617;51.988;5.854;2023-04-24T13:20:58;4.00;;;1.13;;
70228;SDS011;57617;51.988;5.854;2023-04-24T13:23:23;5.40;;;1.10;;
70228;SDS011;57617;51.988;5.854;2023-04-24T13:25:49;6.20;;;1.40;;
70228;SDS011;57617;51.988;5.854;2023-04-24T13:28:14;5.97;;;1.25;;
70228;SDS011;57617;51.988;5.854;2023-04-24T13:30:39;4.95;;;1.33;;
70228;SDS011;57617;51.988;5.854;2023-04-24T13:33:05;6.40;;;1.58;;
70228;SDS011;57617;51.988;5.854;2023-04-24T13:35:30;7.93;;;1.75;;
70228;SDS011;57617;51.988;5.854;2023-04-24T13:37:55;5.30;;;1.73;;
70228;SDS011;57617;51.988;5.854;2023-04-24T13:40:21;4.85;;;1.42;;
70228;SDS011;57617;51.988;5.854;2023-04-24T13:42:46;11.93;;;1.60;;
70228;SDS011;57617;51.988;5.854;2023-04-24T13:45:11;4.70;;;1.48;;
70228;SDS011;57617;51.988;5.854;2023-04-24T13:47:37;9.80;;;1.60;;
70228;SDS011;57617;51.988;5.854;2023-04-24T13:50:05;7.63;;;1.60;;
70228;SDS011;57617;51.988;5.854;2023-04-24T13:52:32;7.53;;;2.08;;
70228;SDS011;57617;51.988;5.854;2023-04-24T13:54:57;13.20;;;1.70;;
70228;SDS011;57617;51.988;5.854;2023-04-24T13:57:22;9.20;;;1.90;;
70228;SDS011;57617;51.988;5.854;2023-04-24T13:59:48;10.85;;;2.00;;
70228;SDS011;57617;51.988;5.854;2023-04-24T14:02:13;8.35;;;2.10;;
70228;SDS011;57617;51.988;5.854;2023-04-24T14:04:38;6.03;;;1.80;;
70228;SDS011;57617;51.988;5.854;2023-04-24T14:07:04;7.35;;;1.48;;
70228;SDS011;57617;51.988;5.854;2023-04-24T14:09:29;8.35;;;1.80;;
70228;SDS011;57617;51.988;5.854;2023-04-24T14:11:54;6.75;;;2.13;;
70228;SDS011;57617;51.988;5.854;2023-04-24T14:14:19;8.18;;;2.05;;
70228;SDS011;57617;51.988;5.854;2023-04-24T14:16:45;6.95;;;2.00;;
70228;SDS011;57617;51.988;5.854;2023-04-24T14:19:10;8.68;;;2.05;;
70228;SDS011;57617;51.988;5.854;2023-04-24T14:21:35;9.63;;;1.80;;
70228;SDS011;57617;51.988;5.854;2023-04-24T14:24:00;9.60;;;1.98;;
70228;SDS011;57617;51.988;5.854;2023-04-24T14:26:26;9.15;;;1.70;;
70228;SDS011;57617;51.988;5.854;2023-04-24T14:28:51;7.32;;;1.80;;
70228;SDS011;57617;51.988;5.854;2023-04-24T14:31:18;9.13;;;2.28;;
70228;SDS011;57617;51.988;5.854;2023-04-24T14:33:43;8.90;;;1.98;;
70228;SDS011;57617;51.988;5.854;2023-04-24T14:36:08;10.63;;;1.70;;
70228;SDS011;57617;51.988;5.854;2023-04-24T14:38:34;11.98;;;2.17;;
70228;SDS011;57617;51.988;5.854;2023-04-24T14:40:59;10.70;;;2.17;;
70228;SDS011;57617;51.988;5.854;2023-04-24T14:43:26;7.70;;;2.30;;
70228;SDS011;57617;51.988;5.854;2023-04-24T14:45:51;10.77;;;2.42;;
70228;SDS011;57617;51.988;5.854;2023-04-24T14:48:16;10.18;;;2.30;;
70228;SDS011;57617;51.988;5.854;2023-04-24T14:50:42;14.48;;;2.58;;
70228;SDS011;57617;51.988;5.854;2023-04-24T14:53:07;8.25;;;2.20;;